Time;durP1;ratioP1;P1;durP2;ratioP2;P2;SDS_P1;SDS_P2;PMS_P1;PMS_P2;Temp;Humidity;BMP_temperature;BMP_pressure;BME280_temperature;BME280_humidity;BME280_pressure;Samples;Min_cycle;Max_cycle;Signal;HPM_P1;HPM_P2
2021/08/17 00:01:45;;;;;;;59.13;19.17;;;;;;;11.12;100.00;94062.50;5072732;28;20203;-79
2021/08/17 00:04:13;;;;;;;61.63;19.20;;;;;;;11.08;100.00;94051.66;5072864;28;20680;-80
2021/08/17 00:06:40;;;;;;;61.40;18.90;;;;;;;11.06;100.00;94058.88;5072984;28;20205;-81
2021/08/17 00:09:06;;;;;;;53.90;17.67;;;;;;;11.07;100.00;94070.97;5072952;28;20206;-80
2021/08/17 00:11:33;;;;;;;52.30;18.40;;;;;;;11.04;100.00;94080.97;5072829;28;20665;-79
2021/08/17 00:13:59;;;;;;;55.13;18.33;;;;;;;11.01;100.00;94076.16;5072685;28;20253;-77
2021/08/17 00:16:26;;;;;;;30.90;11.53;;;;;;;10.83;100.00;94085.31;5072701;28;20202;-80
2021/08/17 00:18:52;;;;;;;21.67;9.40;;;;;;;10.73;100.00;94085.66;5074498;28;20213;-82
2021/08/17 00:21:20;;;;;;;16.23;7.07;;;;;;;10.60;100.00;94090.03;5077026;28;20214;-76
2021/08/17 00:23:46;;;;;;;15.73;6.53;;;;;;;10.54;100.00;94102.03;5076958;28;20194;-81
2021/08/17 00:26:13;;;;;;;18.27;7.00;;;;;;;10.48;100.00;94111.44;5076745;28;20202;-77
2021/08/17 00:28:39;;;;;;;13.87;6.80;;;;;;;10.43;100.00;94110.41;5076171;28;20218;-77
2021/08/17 00:31:06;;;;;;;19.33;7.43;;;;;;;10.41;100.00;94107.16;5077127;28;20205;-80
2021/08/17 00:33:32;;;;;;;13.90;6.17;;;;;;;10.36;100.00;94111.16;5076612;28;20205;-81
2021/08/17 00:36:01;;;;;;;16.73;6.47;;;;;;;10.34;100.00;94107.94;5076417;28;20234;-81
2021/08/17 00:38:29;;;;;;;16.33;6.47;;;;;;;10.35;100.00;94112.16;5076668;28;20202;-81
2021/08/17 00:40:55;;;;;;;16.03;6.57;;;;;;;10.32;100.00;94112.53;5076554;28;20206;-82
2021/08/17 00:43:23;;;;;;;17.80;7.30;;;;;;;10.27;100.00;94117.50;5076335;28;20199;-81
2021/08/17 00:45:49;;;;;;;14.40;6.47;;;;;;;10.22;100.00;94125.06;5076359;28;20234;-80
2021/08/17 00:48:16;;;;;;;15.33;7.13;;;;;;;10.21;100.00;94123.47;5076427;28;20657;-81
2021/08/17 00:50:44;;;;;;;20.20;8.00;;;;;;;10.17;100.00;94122.22;5075357;28;20465;-81
2021/08/17 00:53:12;;;;;;;12.80;6.00;;;;;;;10.18;100.00;94129.06;5076559;28;20207;-81
2021/08/17 00:55:41;;;;;;;15.33;6.03;;;;;;;10.17;100.00;94130.06;5076079;28;20585;-81
2021/08/17 00:58:07;;;;;;;14.33;5.80;;;;;;;10.17;100.00;94124.84;5076082;28;20195;-81
2021/08/17 01:00:34;;;;;;;12.20;5.93;;;;;;;10.14;100.00;94117.38;5076285;28;20209;-81
2021/08/17 01:03:00;;;;;;;9.67;5.10;;;;;;;10.16;100.00;94120.63;5076148;28;20198;-81
2021/08/17 01:05:28;;;;;;;14.23;6.10;;;;;;;10.13;100.00;94115.78;5076020;28;20203;-81
2021/08/17 01:07:55;;;;;;;14.47;5.77;;;;;;;10.15;100.00;94119.00;5075943;28;20665;-81
2021/08/17 01:10:22;;;;;;;17.37;5.97;;;;;;;10.09;100.00;94124.97;5075879;28;20241;-81
2021/08/17 01:12:50;;;;;;;10.60;5.00;;;;;;;10.11;100.00;94126.41;5076090;28;20205;-80
2021/08/17 01:15:16;;;;;;;15.27;5.97;;;;;;;10.12;100.00;94127.22;5075924;28;20589;-81
2021/08/17 01:17:43;;;;;;;14.27;5.13;;;;;;;10.09;100.00;94136.25;5075985;28;20203;-80
2021/08/17 01:20:14;;;;;;;14.07;5.40;;;;;;;10.11;100.00;94136.06;5075809;28;20199;-80
2021/08/17 01:22:42;;;;;;;15.60;6.10;;;;;;;10.13;100.00;94134.84;5075735;28;20203;-80
2021/08/17 01:25:09;;;;;;;15.73;6.03;;;;;;;10.16;100.00;94144.13;5075649;28;20210;-81
2021/08/17 01:27:38;;;;;;;18.83;6.23;;;;;;;10.16;100.00;94144.91;5075605;28;20207;-81
2021/08/17 01:30:06;;;;;;;16.67;6.30;;;;;;;10.18;100.00;94148.13;5075630;28;20206;-81
2021/08/17 01:32:32;;;;;;;12.87;5.90;;;;;;;10.12;100.00;94153.31;5075533;28;20206;-81
2021/08/17 01:34:59;;;;;;;14.55;6.57;;;;;;;10.13;100.00;94157.53;5074481;28;20851;-81
2021/08/17 01:37:25;;;;;;;13.70;5.87;;;;;;;10.14;100.00;94159.13;5075326;28;20203;-81
2021/08/17 01:39:59;;;;;;;16.33;5.67;;;;;;;10.10;100.00;94165.72;5075572;28;20625;-81
2021/08/17 01:42:26;;;;;;;19.17;5.53;;;;;;;10.13;100.00;94170.59;5075305;28;20613;-81
2021/08/17 01:44:55;;;;;;;11.57;5.53;;;;;;;10.03;100.00;94168.28;5075367;28;20239;-82
2021/08/17 01:47:21;;;;;;;10.53;4.33;;;;;;;10.01;100.00;94172.88;5075405;28;20230;-81
2021/08/17 01:49:48;;;;;;;8.57;4.27;;;;;;;9.99;100.00;94167.84;5075367;28;20199;-81
2021/08/17 01:52:15;;;;;;;13.47;5.50;;;;;;;9.98;100.00;94174.06;5075333;28;20202;-81
2021/08/17 01:54:42;;;;;;;10.70;4.87;;;;;;;9.92;100.00;94166.16;5076046;28;20226;-81
2021/08/17 01:57:08;;;;;;;12.20;4.97;;;;;;;9.87;100.00;94173.75;5075256;28;20688;-80
2021/08/17 01:59:35;;;;;;;14.00;5.07;;;;;;;9.86;100.00;94175.56;5075265;28;20345;-81
2021/08/17 02:02:03;;;;;;;14.23;4.57;;;;;;;9.81;100.00;94173.50;5075047;28;20195;-81
2021/08/17 02:04:31;;;;;;;10.43;3.80;;;;;;;9.74;100.00;94180.47;5075082;28;20199;-81
2021/08/17 02:06:57;;;;;;;11.67;3.83;;;;;;;9.73;100.00;94186.66;5074818;28;20289;-81
2021/08/17 02:09:24;;;;;;;9.17;4.73;;;;;;;9.65;100.00;94186.75;5073693;28;20431;-81
2021/08/17 02:11:50;;;;;;;9.00;4.47;;;;;;;9.56;100.00;94188.69;5074887;28;20568;-82
2021/08/17 02:14:16;;;;;;;11.47;4.50;;;;;;;9.50;100.00;94184.19;5074738;28;20202;-81
2021/08/17 02:16:43;;;;;;;9.53;4.43;;;;;;;9.50;100.00;94183.41;5074627;28;20226;-82
2021/08/17 02:19:12;;;;;;;10.40;4.20;;;;;;;9.42;100.00;94189.50;5074628;28;20230;-81
2021/08/17 02:21:39;;;;;;;9.60;4.10;;;;;;;9.34;100.00;94187.84;5074520;28;20683;-81
2021/08/17 02:24:06;;;;;;;9.00;3.97;;;;;;;9.22;100.00;94195.28;5074325;28;20685;-81
2021/08/17 02:26:32;;;;;;;10.53;4.00;;;;;;;9.02;100.00;94189.81;5074518;28;20209;-82
2021/08/17 02:28:59;;;;;;;8.07;3.80;;;;;;;8.74;100.00;94192.25;5074044;28;20198;-82
2021/08/17 02:31:25;;;;;;;10.57;3.90;;;;;;;8.61;100.00;94195.47;5074315;28;20202;-82
2021/08/17 02:33:52;;;;;;;8.20;4.50;;;;;;;8.50;100.00;94203.72;5074241;28;20199;-82
2021/08/17 02:36:20;;;;;;;11.70;4.60;;;;;;;8.37;100.00;94204.28;5074387;28;20257;-82
2021/08/17 02:38:46;;;;;;;10.23;4.23;;;;;;;8.33;100.00;94209.03;5074151;28;20206;-82
2021/08/17 02:41:13;;;;;;;11.63;4.40;;;;;;;8.16;100.00;94204.97;5073697;28;20224;-81
2021/08/17 02:43:39;;;;;;;11.77;4.33;;;;;;;8.07;100.00;94201.59;5074179;28;20195;-81
2021/08/17 02:46:06;;;;;;;11.47;4.60;;;;;;;7.96;100.00;94207.22;5074096;28;20241;-81
2021/08/17 02:48:32;;;;;;;8.60;3.83;;;;;;;7.88;100.00;94202.06;5073905;28;20205;-81
2021/08/17 02:50:59;;;;;;;9.30;4.37;;;;;;;7.85;100.00;94205.00;5074173;28;20569;-80
2021/08/17 02:53:27;;;;;;;11.10;5.10;;;;;;;7.75;100.00;94200.84;5074041;28;20242;-81
2021/08/17 02:55:53;;;;;;;13.30;4.80;;;;;;;7.81;100.00;94199.34;5073808;28;20232;-81
2021/08/17 02:58:20;;;;;;;10.20;4.27;;;;;;;7.64;100.00;94200.44;5073820;28;20201;-80
2021/08/17 03:00:46;;;;;;;12.67;4.60;;;;;;;7.74;100.00;94204.44;5073730;28;20202;-80
2021/08/17 03:03:13;;;;;;;12.33;4.60;;;;;;;7.62;100.00;94203.19;5073951;28;20233;-81
2021/08/17 03:05:40;;;;;;;18.17;6.20;;;;;;;7.54;100.00;94206.66;5073088;28;20450;-81
2021/08/17 03:08:07;;;;;;;12.27;4.43;;;;;;;7.38;100.00;94197.16;5073779;28;20205;-81
2021/08/17 03:10:37;;;;;;;9.93;4.30;;;;;;;7.33;100.00;94196.84;5073573;28;20206;-80
2021/08/17 03:13:05;;;;;;;11.03;4.33;;;;;;;7.22;100.00;94205.03;5073461;28;20218;-80
2021/08/17 03:15:33;;;;;;;9.07;3.97;;;;;;;7.03;100.00;94201.06;5073287;28;20232;-80
2021/08/17 03:18:01;;;;;;;11.30;3.80;;;;;;;6.91;100.00;94210.16;5073659;28;20194;-82
2021/08/17 03:20:29;;;;;;;12.07;4.70;;;;;;;6.93;100.00;94201.25;5073366;28;20665;-80
2021/08/17 03:22:56;;;;;;;15.93;4.37;;;;;;;6.88;100.00;94203.53;5073396;28;20289;-81
2021/08/17 03:25:23;;;;;;;14.23;4.97;;;;;;;6.94;100.00;94207.22;5073211;28;20661;-80
2021/08/17 03:27:51;;;;;;;15.87;5.43;;;;;;;6.95;100.00;94201.06;5073267;28;20241;-80
2021/08/17 03:30:19;;;;;;;19.10;5.43;;;;;;;7.13;100.00;94212.03;5073174;28;20211;-80
2021/08/17 03:32:46;;;;;;;15.13;5.67;;;;;;;7.02;100.00;94205.41;5073349;28;20203;-79
2021/08/17 03:35:13;;;;;;;17.03;5.17;;;;;;;7.04;100.00;94200.88;5073230;28;20222;-80
2021/08/17 03:37:41;;;;;;;15.90;5.57;;;;;;;6.96;100.00;94200.91;5073280;28;20210;-80
2021/08/17 03:40:08;;;;;;;13.17;4.40;;;;;;;6.76;100.00;94197.88;5073186;28;20202;-81
2021/08/17 03:42:37;;;;;;;11.40;4.47;;;;;;;6.57;100.00;94204.25;5073150;28;20198;-81
2021/08/17 03:45:06;;;;;;;13.43;5.10;;;;;;;6.68;100.00;94208.28;5072843;28;20620;-81
2021/08/17 03:47:33;;;;;;;15.23;4.53;;;;;;;6.46;100.00;94207.16;5073213;28;20283;-80
2021/08/17 03:49:59;;;;;;;13.00;5.00;;;;;;;6.50;100.00;94215.47;5073111;28;20535;-82
2021/08/17 03:52:26;;;;;;;14.90;5.13;;;;;;;6.38;100.00;94210.59;5072654;28;20209;-81
2021/08/17 03:54:52;;;;;;;11.47;4.67;;;;;;;6.43;100.00;94216.09;5072364;28;20287;-81
2021/08/17 03:57:19;;;;;;;11.63;4.17;;;;;;;6.27;100.00;94211.72;5072896;28;20203;-80
2021/08/17 03:59:45;;;;;;;16.70;5.33;;;;;;;6.41;100.00;94207.69;5073142;28;20214;-79
2021/08/17 04:02:13;;;;;;;10.50;4.17;;;;;;;6.19;100.00;94208.34;5072883;28;20550;-82
2021/08/17 04:04:39;;;;;;;16.63;4.00;;;;;;;6.03;100.00;94204.78;5072862;28;20209;-80
2021/08/17 04:07:07;;;;;;;13.10;4.50;;;;;;;6.13;100.00;94209.81;5072823;28;20203;-80
2021/08/17 04:09:33;;;;;;;14.70;4.27;;;;;;;6.03;100.00;94206.53;5072748;28;20202;-81
2021/08/17 04:12:00;;;;;;;21.80;6.17;;;;;;;6.15;100.00;94207.84;5072847;28;20204;-82
2021/08/17 04:14:26;;;;;;;24.90;6.17;;;;;;;6.17;100.00;94215.47;5072884;28;20223;-81
2021/08/17 04:16:56;;;;;;;25.80;6.27;;;;;;;6.31;100.00;94212.22;5072785;28;20237;-81
2021/08/17 04:19:24;;;;;;;19.43;5.57;;;;;;;6.15;100.00;94212.25;5072725;28;20198;-81
2021/08/17 04:21:50;;;;;;;15.83;5.30;;;;;;;6.03;100.00;94214.31;5072412;28;20226;-81
2021/08/17 04:24:17;;;;;;;26.33;6.07;;;;;;;6.03;100.00;94204.78;5071336;28;20194;-81
2021/08/17 04:26:43;;;;;;;13.60;5.27;;;;;;;5.98;100.00;94212.22;5072835;28;20222;-81
2021/08/17 04:29:11;;;;;;;13.13;5.17;;;;;;;6.14;100.00;94221.78;5072610;28;20657;-81
2021/08/17 04:31:37;;;;;;;22.13;6.57;;;;;;;6.20;100.00;94223.72;5072593;28;20213;-81
2021/08/17 04:34:04;;;;;;;22.27;5.43;;;;;;;6.27;100.00;94216.91;5072721;28;20199;-81
2021/08/17 04:36:32;;;;;;;23.90;6.43;;;;;;;6.33;100.00;94220.66;5072648;28;20276;-81
2021/08/17 04:38:58;;;;;;;20.73;6.57;;;;;;;6.34;100.00;94222.25;5072517;28;20714;-80
2021/08/17 04:41:25;;;;;;;22.13;5.73;;;;;;;6.21;100.00;94232.31;5072559;28;20201;-81
2021/08/17 04:43:52;;;;;;;22.50;6.80;;;;;;;6.23;100.00;94226.00;5072634;28;20612;-81
2021/08/17 04:46:18;;;;;;;20.23;5.87;;;;;;;6.11;100.00;94230.69;5072390;28;20238;-80
2021/08/17 04:48:45;;;;;;;18.37;5.87;;;;;;;6.05;100.00;94233.94;5072434;28;20206;-81
2021/08/17 04:51:11;;;;;;;16.30;5.47;;;;;;;6.00;100.00;94231.00;5072262;28;20224;-79
2021/08/17 04:53:39;;;;;;;14.77;5.13;;;;;;;5.97;100.00;94244.28;5072342;28;20203;-80
2021/08/17 04:56:06;;;;;;;17.53;5.60;;;;;;;6.03;100.00;94240.22;5072417;28;20240;-81
2021/08/17 04:58:33;;;;;;;18.80;5.77;;;;;;;6.10;100.00;94236.84;5072441;28;20203;-80
2021/08/17 05:00:59;;;;;;;14.33;5.30;;;;;;;6.02;100.00;94243.81;5072344;28;20201;-80
2021/08/17 05:03:26;;;;;;;21.70;5.33;;;;;;;6.01;100.00;94244.78;5072366;28;20214;-80
2021/08/17 05:05:52;;;;;;;26.20;5.87;;;;;;;6.05;100.00;94243.50;5075096;28;20210;-80
2021/08/17 05:08:19;;;;;;;20.07;5.43;;;;;;;6.13;100.00;94255.63;5076191;28;20202;-81
2021/08/17 05:10:47;;;;;;;17.60;5.57;;;;;;;6.26;100.00;94254.19;5075985;28;20206;-80
2021/08/17 05:13:13;;;;;;;19.67;5.90;;;;;;;6.33;100.00;94250.94;5075896;28;20207;-80
2021/08/17 05:15:40;;;;;;;22.30;6.60;;;;;;;6.43;100.00;94252.41;5075675;28;20222;-82
2021/08/17 05:18:06;;;;;;;25.20;6.23;;;;;;;6.42;100.00;94257.75;5075752;28;20203;-81
2021/08/17 05:20:33;;;;;;;23.17;5.73;;;;;;;6.43;100.00;94264.56;5075619;28;20199;-80
2021/08/17 05:23:00;;;;;;;20.03;6.20;;;;;;;6.44;100.00;94266.19;5075837;28;20199;-81
2021/08/17 05:25:26;;;;;;;25.07;6.73;;;;;;;6.47;100.00;94271.03;5075842;28;20285;-79
2021/08/17 05:27:54;;;;;;;18.40;6.37;;;;;;;6.53;100.00;94274.75;5075662;28;20565;-80
2021/08/17 05:30:21;;;;;;;24.43;5.60;;;;;;;6.53;100.00;94265.22;5075631;28;20203;-81
2021/08/17 05:32:48;;;;;;;18.13;5.17;;;;;;;6.54;100.00;94269.41;5075412;28;20202;-81
2021/08/17 05:35:14;;;;;;;16.73;5.37;;;;;;;6.58;100.00;94277.69;5075622;28;20213;-80
2021/08/17 05:37:41;;;;;;;16.53;5.07;;;;;;;6.61;100.00;94282.53;5075934;28;20613;-80
2021/08/17 05:40:09;;;;;;;20.00;5.70;;;;;;;6.72;100.00;94271.03;5076459;28;20207;-81
2021/08/17 05:42:36;;;;;;;17.97;5.90;;;;;;;6.83;100.00;94268.09;5077474;28;20209;-80
2021/08/17 05:45:05;;;;;;;18.53;5.50;;;;;;;6.87;100.00;94269.38;5075923;28;20230;-79
2021/08/17 05:47:32;;;;;;;20.93;6.97;;;;;;;6.95;100.00;94274.56;5075475;28;20663;-81
2021/08/17 05:49:58;;;;;;;20.77;6.07;;;;;;;7.06;100.00;94278.59;5075365;28;20206;-80
2021/08/17 05:52:25;;;;;;;16.67;5.60;;;;;;;7.15;100.00;94277.59;5075568;28;20596;-81
2021/08/17 05:54:52;;;;;;;20.27;6.50;;;;;;;7.26;100.00;94286.00;5075296;28;20584;-81
2021/08/17 05:57:19;;;;;;;19.00;6.67;;;;;;;7.35;100.00;94288.41;5075068;28;20321;-81
2021/08/17 05:59:45;;;;;;;23.37;7.17;;;;;;;7.50;100.00;94283.31;5075053;28;20672;-81
2021/08/17 06:02:13;;;;;;;18.90;6.07;;;;;;;7.68;100.00;94288.28;5074846;28;20214;-81
2021/08/17 06:04:39;;;;;;;21.30;7.47;;;;;;;7.88;100.00;94290.47;5074781;28;20442;-80
2021/08/17 06:07:06;;;;;;;19.43;6.33;;;;;;;8.08;100.00;94289.03;5075073;28;20569;-81
2021/08/17 06:09:34;;;;;;;18.37;6.33;;;;;;;8.32;100.00;94288.03;5074928;28;20210;-81
2021/08/17 06:12:01;;;;;;;22.37;6.73;;;;;;;8.38;100.00;94288.34;5074891;28;20641;-81
2021/08/17 06:14:28;;;;;;;25.67;7.80;;;;;;;8.77;100.00;94277.78;5074928;28;20226;-80
2021/08/17 06:16:54;;;;;;;32.17;7.77;;;;;;;9.15;100.00;94284.78;5073577;28;20712;-80
2021/08/17 06:19:24;;;;;;;34.53;8.80;;;;;;;9.56;100.00;94284.28;5074937;28;20210;-80
2021/08/17 06:21:50;;;;;;;15.67;6.03;;;;;;;9.61;100.00;94282.78;5074491;28;20650;-81
2021/08/17 06:24:17;;;;;;;19.90;6.30;;;;;;;9.71;100.00;94281.66;5074559;28;20243;-81
2021/08/17 06:26:43;;;;;;;13.23;4.83;;;;;;;9.48;100.00;94290.44;5074454;28;20206;-80
2021/08/17 06:29:10;;;;;;;12.00;5.03;;;;;;;9.36;100.00;94302.28;5073828;28;20286;-81
2021/08/17 06:31:36;;;;;;;27.93;6.23;;;;;;;9.79;100.00;94297.22;5074504;28;20199;-81
2021/08/17 06:34:03;;;;;;;14.50;5.30;;;;;;;9.62;100.00;94302.63;5074191;28;20206;-80
2021/08/17 06:36:31;;;;;;;19.40;5.13;;;;;;;9.80;100.00;94301.44;5074409;28;20237;-80
2021/08/17 06:38:58;;;;;;;13.00;5.77;;;;;;;10.25;100.00;94296.13;5074352;28;20198;-80
2021/08/17 06:41:24;;;;;;;9.53;4.57;;;;;;;10.30;100.00;94299.00;5074326;28;20203;-80
2021/08/17 06:43:52;;;;;;;10.30;5.00;;;;;;;10.79;100.00;94284.38;5074044;28;20657;-80
2021/08/17 06:46:18;;;;;;;9.37;4.37;;;;;;;10.76;100.00;94287.38;5073759;28;20235;-80
2021/08/17 06:48:45;;;;;;;11.47;4.87;;;;;;;10.63;100.00;94288.09;5074176;28;20203;-80
2021/08/17 06:51:11;;;;;;;11.67;4.60;;;;;;;10.76;100.00;94287.38;5073379;28;20439;-80
2021/08/17 06:53:40;;;;;;;9.80;4.30;;;;;;;11.17;100.00;94286.69;5074077;28;20195;-80
2021/08/17 06:56:07;;;;;;;11.00;4.50;;;;;;;11.11;100.00;94296.91;5073858;28;20207;-80
2021/08/17 06:58:36;;;;;;;11.40;5.13;;;;;;;11.18;100.00;94307.41;5074054;28;20569;-81
2021/08/17 07:01:03;;;;;;;9.47;4.00;;;;;;;11.02;100.00;94313.69;5074224;28;20224;-79
2021/08/17 07:03:29;;;;;;;14.23;4.73;;;;;;;10.78;100.00;94312.31;5074055;28;20207;-79
2021/08/17 07:05:58;;;;;;;9.67;3.67;;;;;;;10.77;100.00;94304.66;5073694;28;20203;-79
2021/08/17 07:08:25;;;;;;;12.33;4.60;;;;;;;10.36;100.00;94309.53;5073658;28;20199;-79
2021/08/17 07:10:56;;;;;;;9.90;3.80;;;;;;;10.35;100.00;94312.31;5073533;28;20294;-80
2021/08/17 07:13:22;;;;;;;11.80;4.57;;;;;;;10.34;100.00;94308.91;5073733;28;20211;-80
2021/08/17 07:15:49;;;;;;;10.97;4.60;;;;;;;10.53;100.00;94310.09;5073688;28;20210;-80
2021/08/17 07:18:18;;;;;;;10.70;4.60;;;;;;;10.68;100.00;94317.06;5073498;28;20223;-80
2021/08/17 07:20:45;;;;;;;7.13;3.53;;;;;;;10.81;100.00;94308.50;5073472;28;20194;-79
2021/08/17 07:23:12;;;;;;;11.10;4.30;;;;;;;10.88;100.00;94322.44;5073303;28;20199;-80
2021/08/17 07:25:39;;;;;;;8.73;4.47;;;;;;;10.93;100.00;94314.84;5073346;28;20665;-81
2021/08/17 07:28:10;;;;;;;10.67;4.20;;;;;;;11.13;100.00;94309.78;5073295;28;20222;-81
2021/08/17 07:30:36;;;;;;;9.33;3.87;;;;;;;11.06;100.00;94314.94;5073559;28;20199;-81
2021/08/17 07:33:07;;;;;;;9.20;4.40;;;;;;;11.04;100.00;94319.56;5073335;28;20224;-81
2021/08/17 07:35:33;;;;;;;13.20;4.53;;;;;;;11.21;100.00;94308.84;5073273;28;20206;-81
2021/08/17 07:38:03;;;;;;;16.57;4.30;;;;;;;11.29;100.00;94317.31;5072983;28;20232;-81
2021/08/17 07:40:29;;;;;;;8.83;3.93;;;;;;;11.28;100.00;94307.06;5073399;28;20202;-81
2021/08/17 07:42:56;;;;;;;9.73;4.17;;;;;;;11.57;100.00;94315.66;5073049;28;20286;-81
2021/08/17 07:45:24;;;;;;;13.33;4.93;;;;;;;11.59;100.00;94311.88;5072968;28;20234;-81
2021/08/17 07:47:51;;;;;;;8.93;4.00;;;;;;;11.84;100.00;94306.16;5073118;28;20207;-81
2021/08/17 07:50:20;;;;;;;10.13;4.13;;;;;;;12.13;100.00;94307.69;5072895;28;20207;-81
2021/08/17 07:52:50;;;;;;;6.87;3.80;;;;;;;11.87;100.00;94310.19;5073144;28;20225;-81
2021/08/17 07:55:20;;;;;;;11.73;4.83;;;;;;;12.13;100.00;94314.75;5073105;28;20340;-81
2021/08/17 07:57:46;;;;;;;12.20;4.07;;;;;;;12.14;100.00;94317.16;5072800;28;20711;-81
2021/08/17 08:00:15;;;;;;;11.97;3.93;;;;;;;12.36;100.00;94317.03;5072998;28;20203;-81
2021/08/17 08:02:43;;;;;;;7.40;3.80;;;;;;;12.32;100.00;94319.25;5072744;28;20225;-81
2021/08/17 08:05:18;;;;;;;9.07;4.10;;;;;;;12.38;100.00;94317.63;5072662;28;20203;-80
2021/08/17 08:07:44;;;;;;;7.27;3.77;;;;;;;12.67;100.00;94320.91;5072995;28;20211;-79
2021/08/17 08:10:16;;;;;;;8.60;4.37;;;;;;;12.58;100.00;94321.09;5072914;28;20210;-80
2021/08/17 08:12:43;;;;;;;12.23;4.38;;;;;;;12.80;100.00;94315.69;5072878;28;20205;-82
2021/08/17 08:15:13;;;;;;;8.90;4.05;;;;;;;13.01;100.00;94311.28;5072794;28;20194;-81
2021/08/17 08:17:40;;;;;;;12.77;4.03;;;;;;;13.08;100.00;94315.47;5072564;28;20280;-82
2021/08/17 08:20:12;;;;;;;8.90;4.10;;;;;;;12.54;100.00;94319.88;5071855;28;20438;-81
2021/08/17 08:22:41;;;;;;;8.15;4.50;;;;;;;12.66;100.00;94312.25;5072743;28;20214;-81
2021/08/17 08:25:09;;;;;;;9.32;4.60;;;;;;;13.24;100.00;94316.91;5072658;28;20810;-82
2021/08/17 08:27:36;;;;;;;10.23;4.18;;;;;;;13.32;97.53;94313.28;5072679;28;20202;-81
2021/08/17 08:30:04;;;;;;;8.85;4.30;;;;;;;13.71;95.15;94321.28;5072068;28;20553;-82
2021/08/17 08:32:31;;;;;;;9.65;4.22;;;;;;;13.94;92.99;94318.16;5071994;28;20201;-81
2021/08/17 08:34:58;;;;;;;8.25;4.35;;;;;;;13.74;95.56;94312.97;5072613;28;20658;-82
2021/08/17 08:37:26;;;;;;;9.40;4.40;;;;;;;13.96;94.06;94316.97;5069883;28;20240;-81
2021/08/17 08:39:54;;;;;;;11.35;4.35;;;;;;;13.91;91.35;94322.03;5078283;28;20527;-81
2021/08/17 08:42:21;;;;;;;10.50;4.80;;;;;;;14.67;95.09;94309.16;5077984;28;20723;-82
2021/08/17 08:44:48;;;;;;;11.43;4.50;;;;;;;14.30;94.46;94317.59;5077005;28;20202;-84
2021/08/17 08:47:15;;;;;;;10.65;4.07;;;;;;;14.44;90.45;94311.28;5076392;28;20203;-81
2021/08/17 08:49:43;;;;;;;10.02;4.53;;;;;;;14.61;90.63;94303.72;5076450;28;20199;-82
2021/08/17 08:52:10;;;;;;;9.25;4.07;;;;;;;14.42;87.40;94308.06;5076296;28;20232;-82
2021/08/17 08:54:38;;;;;;;8.30;4.35;;;;;;;14.14;89.82;94307.59;5076335;28;20195;-81
2021/08/17 08:57:05;;;;;;;11.18;4.28;;;;;;;14.10;93.38;94314.28;5075880;28;20219;-82
2021/08/17 08:59:32;;;;;;;12.30;4.15;;;;;;;13.79;91.38;94323.66;5076260;28;20199;-81
2021/08/17 09:02:06;;;;;;;12.32;5.35;;;;;;;13.75;94.37;94327.72;5076592;28;20226;-82
2021/08/17 09:04:33;;;;;;;6.68;3.75;;;;;;;14.25;87.73;94323.53;5077227;28;20202;-80
2021/08/17 09:06:59;;;;;;;8.15;4.32;;;;;;;14.33;88.83;94313.78;5077625;28;20234;-81
2021/08/17 09:09:26;;;;;;;7.85;4.20;;;;;;;14.26;91.54;94313.81;5076291;28;20260;-81
2021/08/17 09:11:56;;;;;;;12.75;5.05;;;;;;;13.98;93.26;94312.31;5075747;28;20199;-81
2021/08/17 09:14:24;;;;;;;9.25;5.10;;;;;;;13.98;92.04;94311.50;5075021;28;20206;-81
2021/08/17 09:16:53;;;;;;;11.38;4.97;;;;;;;14.47;92.37;94306.63;5075867;28;20707;-82
2021/08/17 09:19:28;;;;;;;10.40;4.28;;;;;;;14.70;87.22;94304.28;5076012;28;20719;-81
2021/08/17 09:21:56;;;;;;;11.57;5.00;;;;;;;15.20;84.02;94313.22;5076027;28;20194;-82
2021/08/17 09:24:26;;;;;;;8.23;4.35;;;;;;;15.53;87.15;94291.84;5069184;28;20205;-81
2021/08/17 09:26:57;;;;;;;11.05;4.40;;;;;;;15.50;84.58;94295.75;5077306;28;20221;-82
2021/08/17 09:29:30;;;;;;;7.70;3.92;;;;;;;16.02;83.13;94297.22;5076506;28;20628;-82
2021/08/17 09:31:59;;;;;;;7.78;3.97;;;;;;;15.85;82.17;94291.75;5075650;28;20199;-82
2021/08/17 09:34:37;;;;;;;9.48;4.65;;;;;;;15.32;84.99;94287.78;5075596;28;20294;-83
2021/08/17 09:37:10;;;;;;;14.18;4.60;;;;;;;15.87;83.47;94287.88;5075808;28;20309;-81
2021/08/17 09:39:53;;;;;;;10.68;4.05;;;;;;;15.94;82.70;94284.34;5075494;28;20806;-81
2021/08/17 09:42:24;;;;;;;8.27;4.20;;;;;;;15.88;86.22;94289.47;5075574;28;20209;-83
2021/08/17 09:45:14;;;;;;;9.40;4.63;;;;;;;14.91;84.20;94284.72;5075228;28;20198;-84
2021/08/17 09:47:44;;;;;;;9.45;4.28;;;;;;;14.46;83.76;94291.88;5075123;28;20206;-82
2021/08/17 09:50:20;;;;;;;12.25;4.32;;;;;;;14.63;85.36;94295.63;5075417;28;20195;-82
2021/08/17 09:52:47;;;;;;;7.80;3.67;;;;;;;15.07;85.61;94293.91;5074605;28;20234;-83
2021/08/17 09:55:15;;;;;;;8.88;4.18;;;;;;;15.43;82.75;94287.09;5075061;28;20289;-82
2021/08/17 09:57:43;;;;;;;10.02;4.20;;;;;;;15.39;85.07;94283.28;5074990;28;20738;-81
2021/08/17 10:00:14;;;;;;;8.32;4.28;;;;;;;15.48;85.01;94283.81;5075109;28;20206;-81
2021/08/17 10:02:43;;;;;;;10.98;3.97;;;;;;;16.20;87.38;94280.59;5075195;28;20591;-82
2021/08/17 10:05:12;;;;;;;7.70;4.15;;;;;;;15.26;79.27;94270.28;5074750;28;20203;-81
2021/08/17 10:07:40;;;;;;;7.85;4.13;;;;;;;14.74;81.39;94283.66;5074661;28;20209;-80
2021/08/17 10:10:09;;;;;;;8.75;3.63;;;;;;;15.12;81.63;94280.91;5074767;28;20198;-82
2021/08/17 10:12:36;;;;;;;8.02;4.40;;;;;;;15.05;81.29;94282.78;5074782;28;20285;-81
2021/08/17 10:15:05;;;;;;;10.95;4.38;;;;;;;15.12;80.62;94283.53;5074716;28;20244;-83
2021/08/17 10:17:32;;;;;;;6.63;4.15;;;;;;;15.03;81.98;94276.13;5074608;28;20233;-81
2021/08/17 10:19:59;;;;;;;7.00;3.97;;;;;;;14.86;81.13;94265.34;5074713;28;20276;-82
2021/08/17 10:22:26;;;;;;;9.15;4.30;;;;;;;14.70;81.56;94266.69;5074512;28;20199;-82
2021/08/17 10:25:03;;;;;;;8.63;4.45;;;;;;;14.99;80.40;94260.78;5074512;28;20202;-84
2021/08/17 10:27:33;;;;;;;8.90;4.40;;;;;;;15.35;80.68;94263.69;5074904;28;20205;-84
2021/08/17 10:30:15;;;;;;;7.97;3.88;;;;;;;15.87;83.05;94260.72;5074471;28;20207;-84
2021/08/17 10:32:45;;;;;;;7.00;3.72;;;;;;;15.70;79.50;94255.22;5074558;28;20226;-80
2021/08/17 10:35:59;;;;;;;7.57;3.85;;;;;;;16.31;82.03;94252.69;5076765;28;20198;-83
2021/08/17 10:38:43;;;;;;;8.07;4.00;;;;;;;16.37;74.38;94249.13;5055772;28;20226;-80
2021/08/17 10:41:10;;;;;;;7.70;3.53;;;;;;;16.46;73.87;94240.69;5074176;28;20218;-82
2021/08/17 10:44:13;;;;;;;6.97;3.47;;;;;;;16.22;72.18;94249.53;5074183;28;20242;-82
2021/08/17 10:46:46;;;;;;;7.40;3.70;;;;;;;16.31;74.37;94228.97;5073946;28;20717;-81
2021/08/17 10:49:47;;;;;;;5.93;3.20;;;;;;;16.31;74.58;94221.06;5074067;28;20198;-81
2021/08/17 10:52:30;;;;;;;4.75;2.88;;;;;;;16.62;73.61;94226.06;5074278;28;20237;-82
2021/08/17 10:55:23;;;;;;;5.18;3.08;;;;;;;16.64;76.50;94223.22;5074011;28;20198;-81
2021/08/17 10:57:52;;;;;;;6.68;3.30;;;;;;;17.65;73.16;94223.09;5073744;28;20233;-82
2021/08/17 11:00:45;;;;;;;5.68;2.92;;;;;;;18.27;67.05;94221.66;5074291;28;20546;-81
2021/08/17 11:03:14;;;;;;;6.65;2.80;;;;;;;17.60;69.14;94227.47;5073371;28;20272;-83
2021/08/17 11:05:51;;;;;;;5.53;2.78;;;;;;;16.91;68.45;94218.31;5073760;28;20277;-83
2021/08/17 11:08:38;;;;;;;6.25;3.13;;;;;;;17.00;72.18;94214.34;5073595;28;20199;-83
2021/08/17 11:11:17;;;;;;;8.00;3.08;;;;;;;16.90;71.32;94222.00;5075000;28;20198;-85
2021/08/17 11:14:02;;;;;;;6.60;3.38;;;;;;;16.72;69.21;94208.88;5074201;28;20203;-83
2021/08/17 11:16:28;;;;;;;7.90;2.80;;;;;;;16.85;68.50;94219.22;5073418;28;20206;-80
2021/08/17 11:18:58;;;;;;;6.95;3.20;;;;;;;16.40;70.40;94217.88;5073384;28;20676;-82
2021/08/17 11:21:36;;;;;;;5.85;3.10;;;;;;;17.17;70.47;94211.00;5074702;28;20600;-82
2021/08/17 11:24:22;;;;;;;5.47;3.03;;;;;;;17.36;71.73;94214.31;5073528;28;20205;-83
2021/08/17 11:26:54;;;;;;;5.72;2.67;;;;;;;17.65;66.05;94209.09;5073540;28;20198;-81
2021/08/17 11:29:29;;;;;;;5.50;3.08;;;;;;;18.20;64.51;94189.28;5073430;28;20225;-80
2021/08/17 11:32:01;;;;;;;5.80;2.30;;;;;;;18.43;63.04;94194.44;5075282;28;20216;-81